sensor_id;sensor_type;location;lat;lon;timestamp;P1;durP1;ratioP1;P2;durP2;ratioP2
13238;SDS011;6686;51.292;4.166;2022-10-20T00:00:18;13.13;;;8.63;;
13238;SDS011;6686;51.292;4.166;2022-10-20T00:03:04;13.27;;;9.30;;
13238;SDS011;6686;51.292;4.166;2022-10-20T00:05:51;11.47;;;8.70;;
13238;SDS011;6686;51.292;4.166;2022-10-20T00:08:37;13.17;;;8.70;;
13238;SDS011;6686;51.292;4.166;2022-10-20T00:11:22;11.60;;;8.97;;
13238;SDS011;6686;51.292;4.166;2022-10-20T00:14:08;13.10;;;9.07;;
13238;SDS011;6686;51.292;4.166;2022-10-20T00:16:54;13.83;;;8.87;;
13238;SDS011;6686;51.292;4.166;2022-10-20T00:19:40;13.43;;;9.07;;
13238;SDS011;6686;51.292;4.166;2022-10-20T00:22:26;12.17;;;8.93;;
13238;SDS011;6686;51.292;4.166;2022-10-20T00:25:11;11.20;;;9.13;;
13238;SDS011;6686;51.292;4.166;2022-10-20T00:27:58;15.57;;;8.70;;
13238;SDS011;6686;51.292;4.166;2022-10-20T00:30:43;12.17;;;8.90;;
13238;SDS011;6686;51.292;4.166;2022-10-20T00:33:29;12.40;;;8.47;;
13238;SDS011;6686;51.292;4.166;2022-10-20T00:36:16;12.93;;;8.30;;
13238;SDS011;6686;51.292;4.166;2022-10-20T00:39:02;11.50;;;8.27;;
13238;SDS011;6686;51.292;4.166;2022-10-20T00:41:48;13.43;;;9.03;;
13238;SDS011;6686;51.292;4.166;2022-10-20T00:47:42;13.20;;;8.87;;
13238;SDS011;6686;51.292;4.166;2022-10-20T00:50:32;15.33;;;9.37;;
13238;SDS011;6686;51.292;4.166;2022-10-20T00:53:16;13.77;;;9.27;;
13238;SDS011;6686;51.292;4.166;2022-10-20T00:56:02;14.23;;;9.97;;
13238;SDS011;6686;51.292;4.166;2022-10-20T00:58:48;15.60;;;9.53;;
13238;SDS011;6686;51.292;4.166;2022-10-20T01:01:34;14.67;;;9.80;;
13238;SDS011;6686;51.292;4.166;2022-10-20T01:04:20;12.80;;;9.67;;
13238;SDS011;6686;51.292;4.166;2022-10-20T01:07:06;16.03;;;10.20;;
13238;SDS011;6686;51.292;4.166;2022-10-20T01:09:52;12.27;;;9.73;;
13238;SDS011;6686;51.292;4.166;2022-10-20T01:12:42;12.70;;;10.03;;
13238;SDS011;6686;51.292;4.166;2022-10-20T01:27:38;12.13;;;9.53;;
13238;SDS011;6686;51.292;4.166;2022-10-20T01:30:26;14.13;;;9.73;;
13238;SDS011;6686;51.292;4.166;2022-10-20T01:36:10;16.52;;;12.25;;
13238;SDS011;6686;51.292;4.166;2022-10-20T01:38:53;14.65;;;11.32;;
13238;SDS011;6686;51.292;4.166;2022-10-20T01:41:39;15.50;;;9.77;;
13238;SDS011;6686;51.292;4.166;2022-10-20T01:44:24;13.80;;;10.00;;
13238;SDS011;6686;51.292;4.166;2022-10-20T01:47:09;10.37;;;9.27;;
13238;SDS011;6686;51.292;4.166;2022-10-20T01:49:55;11.23;;;9.27;;
13238;SDS011;6686;51.292;4.166;2022-10-20T01:52:41;17.23;;;10.73;;
13238;SDS011;6686;51.292;4.166;2022-10-20T01:55:27;13.37;;;8.87;;
13238;SDS011;6686;51.292;4.166;2022-10-20T01:58:24;14.13;;;10.30;;
13238;SDS011;6686;51.292;4.166;2022-10-20T02:01:09;12.95;;;11.38;;
13238;SDS011;6686;51.292;4.166;2022-10-20T02:03:57;14.07;;;11.47;;
13238;SDS011;6686;51.292;4.166;2022-10-20T02:09:46;17.07;;;11.00;;
13238;SDS011;6686;51.292;4.166;2022-10-20T02:12:31;13.57;;;10.80;;
13238;SDS011;6686;51.292;4.166;2022-10-20T02:15:16;12.87;;;10.20;;
13238;SDS011;6686;51.292;4.166;2022-10-20T02:18:02;12.90;;;10.60;;
13238;SDS011;6686;51.292;4.166;2022-10-20T02:20:48;11.50;;;9.90;;
13238;SDS011;6686;51.292;4.166;2022-10-20T02:23:34;15.60;;;10.70;;
13238;SDS011;6686;51.292;4.166;2022-10-20T02:26:21;16.23;;;10.20;;
13238;SDS011;6686;51.292;4.166;2022-10-20T02:29:16;14.53;;;9.83;;
13238;SDS011;6686;51.292;4.166;2022-10-20T02:31:57;12.60;;;9.40;;
13238;SDS011;6686;51.292;4.166;2022-10-20T02:34:44;15.27;;;9.70;;
13238;SDS011;6686;51.292;4.166;2022-10-20T02:37:30;11.87;;;9.17;;
13238;SDS011;6686;51.292;4.166;2022-10-20T02:40:16;12.70;;;9.13;;
13238;SDS011;6686;51.292;4.166;2022-10-20T02:43:02;13.50;;;9.87;;
13238;SDS011;6686;51.292;4.166;2022-10-20T02:45:49;12.07;;;9.17;;
13238;SDS011;6686;51.292;4.166;2022-10-20T02:48:35;13.13;;;9.87;;
13238;SDS011;6686;51.292;4.166;2022-10-20T02:51:21;15.52;;;12.45;;
13238;SDS011;6686;51.292;4.166;2022-10-20T02:54:07;10.97;;;9.70;;
13238;SDS011;6686;51.292;4.166;2022-10-20T02:56:53;13.03;;;10.37;;
13238;SDS011;6686;51.292;4.166;2022-10-20T02:59:39;10.50;;;9.10;;
13238;SDS011;6686;51.292;4.166;2022-10-20T03:02:25;15.43;;;10.00;;
13238;SDS011;6686;51.292;4.166;2022-10-20T03:05:11;15.23;;;11.57;;
13238;SDS011;6686;51.292;4.166;2022-10-20T03:07:57;14.55;;;12.07;;
13238;SDS011;6686;51.292;4.166;2022-10-20T03:10:43;14.03;;;10.83;;
13238;SDS011;6686;51.292;4.166;2022-10-20T03:13:29;12.97;;;9.30;;
13238;SDS011;6686;51.292;4.166;2022-10-20T03:16:15;13.47;;;9.63;;
13238;SDS011;6686;51.292;4.166;2022-10-20T03:19:00;15.87;;;10.33;;
13238;SDS011;6686;51.292;4.166;2022-10-20T03:21:46;13.07;;;9.63;;
13238;SDS011;6686;51.292;4.166;2022-10-20T03:24:32;13.43;;;10.47;;
13238;SDS011;6686;51.292;4.166;2022-10-20T03:27:18;12.87;;;9.70;;
13238;SDS011;6686;51.292;4.166;2022-10-20T03:30:04;15.67;;;10.80;;
13238;SDS011;6686;51.292;4.166;2022-10-20T03:32:50;18.50;;;11.07;;
13238;SDS011;6686;51.292;4.166;2022-10-20T03:35:36;12.37;;;10.60;;
13238;SDS011;6686;51.292;4.166;2022-10-20T03:38:22;12.17;;;10.13;;
13238;SDS011;6686;51.292;4.166;2022-10-20T03:41:08;12.43;;;10.33;;
13238;SDS011;6686;51.292;4.166;2022-10-20T03:43:53;15.00;;;10.23;;
13238;SDS011;6686;51.292;4.166;2022-10-20T03:46:39;18.75;;;12.55;;
13238;SDS011;6686;51.292;4.166;2022-10-20T03:49:25;13.73;;;10.23;;
13238;SDS011;6686;51.292;4.166;2022-10-20T03:52:11;12.37;;;10.13;;
13238;SDS011;6686;51.292;4.166;2022-10-20T03:54:57;13.37;;;10.77;;
13238;SDS011;6686;51.292;4.166;2022-10-20T03:57:43;13.53;;;10.67;;
13238;SDS011;6686;51.292;4.166;2022-10-20T04:00:29;15.25;;;12.18;;
13238;SDS011;6686;51.292;4.166;2022-10-20T04:03:15;15.27;;;12.03;;
13238;SDS011;6686;51.292;4.166;2022-10-20T04:06:01;15.13;;;10.67;;
13238;SDS011;6686;51.292;4.166;2022-10-20T04:08:46;13.07;;;10.63;;
13238;SDS011;6686;51.292;4.166;2022-10-20T04:11:32;14.13;;;10.97;;
13238;SDS011;6686;51.292;4.166;2022-10-20T04:14:18;13.50;;;10.40;;
13238;SDS011;6686;51.292;4.166;2022-10-20T04:17:04;15.93;;;11.17;;
13238;SDS011;6686;51.292;4.166;2022-10-20T04:19:50;12.60;;;10.53;;
13238;SDS011;6686;51.292;4.166;2022-10-20T04:22:36;12.90;;;10.50;;
13238;SDS011;6686;51.292;4.166;2022-10-20T04:25:22;15.87;;;10.33;;
13238;SDS011;6686;51.292;4.166;2022-10-20T04:28:08;13.10;;;10.23;;
13238;SDS011;6686;51.292;4.166;2022-10-20T04:30:54;12.87;;;10.77;;
13238;SDS011;6686;51.292;4.166;2022-10-20T04:33:40;15.10;;;11.50;;
13238;SDS011;6686;51.292;4.166;2022-10-20T04:36:26;14.33;;;11.10;;
13238;SDS011;6686;51.292;4.166;2022-10-20T04:39:12;18.33;;;12.07;;
13238;SDS011;6686;51.292;4.166;2022-10-20T04:41:58;22.27;;;12.77;;
13238;SDS011;6686;51.292;4.166;2022-10-20T04:44:44;17.93;;;12.30;;
13238;SDS011;6686;51.292;4.166;2022-10-20T04:47:30;15.73;;;12.23;;
13238;SDS011;6686;51.292;4.166;2022-10-20T04:50:16;16.95;;;13.98;;
13238;SDS011;6686;51.292;4.166;2022-10-20T04:53:01;20.07;;;15.37;;
13238;SDS011;6686;51.292;4.166;2022-10-20T04:55:52;18.12;;;14.77;;
13238;SDS011;6686;51.292;4.166;2022-10-20T04:58:46;16.70;;;14.27;;
13238;SDS011;6686;51.292;4.166;2022-10-20T05:01:31;16.70;;;14.30;;
13238;SDS011;6686;51.292;4.166;2022-10-20T05:04:17;15.00;;;12.90;;
13238;SDS011;6686;51.292;4.166;2022-10-20T05:07:03;17.00;;;12.60;;
13238;SDS011;6686;51.292;4.166;2022-10-20T05:09:49;16.73;;;13.07;;
13238;SDS011;6686;51.292;4.166;2022-10-20T05:12:35;17.37;;;12.10;;
13238;SDS011;6686;51.292;4.166;2022-10-20T05:15:24;14.73;;;11.57;;
13238;SDS011;6686;51.292;4.166;2022-10-20T05:18:06;18.20;;;12.00;;
13238;SDS011;6686;51.292;4.166;2022-10-20T05:20:52;15.60;;;11.40;;
13238;SDS011;6686;51.292;4.166;2022-10-20T05:23:38;14.77;;;11.63;;
13238;SDS011;6686;51.292;4.166;2022-10-20T05:26:24;14.30;;;11.27;;
13238;SDS011;6686;51.292;4.166;2022-10-20T05:29:10;15.03;;;12.30;;
13238;SDS011;6686;51.292;4.166;2022-10-20T05:31:56;16.33;;;12.07;;
13238;SDS011;6686;51.292;4.166;2022-10-20T05:34:42;13.97;;;11.70;;
13238;SDS011;6686;51.292;4.166;2022-10-20T05:37:28;18.30;;;12.70;;
13238;SDS011;6686;51.292;4.166;2022-10-20T05:40:14;15.50;;;12.30;;
13238;SDS011;6686;51.292;4.166;2022-10-20T05:43:00;16.02;;;13.77;;
13238;SDS011;6686;51.292;4.166;2022-10-20T05:45:51;15.43;;;12.57;;
13238;SDS011;6686;51.292;4.166;2022-10-20T05:48:31;19.47;;;13.10;;
13238;SDS011;6686;51.292;4.166;2022-10-20T05:51:18;16.80;;;11.77;;
13238;SDS011;6686;51.292;4.166;2022-10-20T05:54:03;14.83;;;11.90;;
13238;SDS011;6686;51.292;4.166;2022-10-20T05:56:49;18.03;;;12.73;;
13238;SDS011;6686;51.292;4.166;2022-10-20T05:59:36;17.83;;;12.23;;
13238;SDS011;6686;51.292;4.166;2022-10-20T06:02:22;16.57;;;11.97;;
13238;SDS011;6686;51.292;4.166;2022-10-20T06:05:08;15.83;;;12.20;;
13238;SDS011;6686;51.292;4.166;2022-10-20T06:07:53;16.08;;;14.30;;
13238;SDS011;6686;51.292;4.166;2022-10-20T06:10:40;17.30;;;12.57;;
13238;SDS011;6686;51.292;4.166;2022-10-20T06:13:25;13.57;;;12.00;;
13238;SDS011;6686;51.292;4.166;2022-10-20T06:16:15;16.13;;;12.00;;
13238;SDS011;6686;51.292;4.166;2022-10-20T06:19:00;16.43;;;12.40;;
13238;SDS011;6686;51.292;4.166;2022-10-20T06:21:46;18.27;;;11.93;;
13238;SDS011;6686;51.292;4.166;2022-10-20T06:24:32;18.35;;;14.18;;
13238;SDS011;6686;51.292;4.166;2022-10-20T06:27:18;15.87;;;12.37;;
13238;SDS011;6686;51.292;4.166;2022-10-20T06:30:04;16.60;;;12.27;;
13238;SDS011;6686;51.292;4.166;2022-10-20T06:32:53;16.83;;;12.57;;
13238;SDS011;6686;51.292;4.166;2022-10-20T06:35:38;19.10;;;13.33;;
13238;SDS011;6686;51.292;4.166;2022-10-20T06:38:24;16.77;;;12.27;;
13238;SDS011;6686;51.292;4.166;2022-10-20T06:41:13;17.67;;;12.60;;
13238;SDS011;6686;51.292;4.166;2022-10-20T06:43:57;15.70;;;12.93;;
13238;SDS011;6686;51.292;4.166;2022-10-20T06:46:43;18.80;;;12.73;;
13238;SDS011;6686;51.292;4.166;2022-10-20T06:49:29;16.00;;;12.53;;
13238;SDS011;6686;51.292;4.166;2022-10-20T06:52:15;16.10;;;12.30;;
13238;SDS011;6686;51.292;4.166;2022-10-20T06:55:00;15.97;;;11.87;;
13238;SDS011;6686;51.292;4.166;2022-10-20T06:57:46;15.90;;;11.83;;
13238;SDS011;6686;51.292;4.166;2022-10-20T07:00:32;14.17;;;11.20;;
13238;SDS011;6686;51.292;4.166;2022-10-20T07:03:18;18.87;;;12.93;;
13238;SDS011;6686;51.292;4.166;2022-10-20T07:06:05;18.70;;;14.02;;
13238;SDS011;6686;51.292;4.166;2022-10-20T07:08:51;18.58;;;13.88;;
13238;SDS011;6686;51.292;4.166;2022-10-20T07:11:37;15.13;;;12.87;;
13238;SDS011;6686;51.292;4.166;2022-10-20T07:14:23;16.97;;;12.03;;
13238;SDS011;6686;51.292;4.166;2022-10-20T07:17:09;18.00;;;14.85;;
13238;SDS011;6686;51.292;4.166;2022-10-20T07:19:55;18.73;;;14.40;;
13238;SDS011;6686;51.292;4.166;2022-10-20T07:22:41;22.73;;;17.10;;
13238;SDS011;6686;51.292;4.166;2022-10-20T07:25:27;16.97;;;12.87;;
13238;SDS011;6686;51.292;4.166;2022-10-20T07:28:12;16.97;;;12.43;;
13238;SDS011;6686;51.292;4.166;2022-10-20T07:31:06;14.50;;;11.93;;
13238;SDS011;6686;51.292;4.166;2022-10-20T07:34:06;16.53;;;12.20;;
13238;SDS011;6686;51.292;4.166;2022-10-20T07:36:52;16.70;;;12.40;;
13238;SDS011;6686;51.292;4.166;2022-10-20T07:39:38;17.20;;;11.53;;
13238;SDS011;6686;51.292;4.166;2022-10-20T07:42:24;14.73;;;11.27;;
13238;SDS011;6686;51.292;4.166;2022-10-20T07:45:09;15.17;;;11.40;;
13238;SDS011;6686;51.292;4.166;2022-10-20T07:47:56;15.67;;;12.03;;
13238;SDS011;6686;51.292;4.166;2022-10-20T07:50:41;13.03;;;11.00;;
13238;SDS011;6686;51.292;4.166;2022-10-20T07:53:30;16.07;;;11.50;;
13238;SDS011;6686;51.292;4.166;2022-10-20T07:56:14;12.33;;;11.03;;
13238;SDS011;6686;51.292;4.166;2022-10-20T07:58:59;16.33;;;11.07;;
13238;SDS011;6686;51.292;4.166;2022-10-20T08:01:45;14.87;;;11.17;;
13238;SDS011;6686;51.292;4.166;2022-10-20T08:04:31;16.80;;;11.37;;
13238;SDS011;6686;51.292;4.166;2022-10-20T08:07:17;14.75;;;12.73;;
13238;SDS011;6686;51.292;4.166;2022-10-20T08:10:03;13.93;;;11.27;;
13238;SDS011;6686;51.292;4.166;2022-10-20T08:12:48;14.43;;;11.87;;
13238;SDS011;6686;51.292;4.166;2022-10-20T08:15:34;13.30;;;10.43;;
13238;SDS011;6686;51.292;4.166;2022-10-20T08:18:20;12.27;;;10.07;;
13238;SDS011;6686;51.292;4.166;2022-10-20T08:21:13;11.10;;;9.90;;
13238;SDS011;6686;51.292;4.166;2022-10-20T08:23:58;11.97;;;9.97;;
13238;SDS011;6686;51.292;4.166;2022-10-20T08:26:44;12.80;;;10.37;;
13238;SDS011;6686;51.292;4.166;2022-10-20T08:29:30;13.87;;;10.80;;
13238;SDS011;6686;51.292;4.166;2022-10-20T08:32:15;16.47;;;10.53;;
13238;SDS011;6686;51.292;4.166;2022-10-20T08:35:01;18.23;;;10.37;;
13238;SDS011;6686;51.292;4.166;2022-10-20T08:37:47;15.33;;;10.60;;
13238;SDS011;6686;51.292;4.166;2022-10-20T08:40:33;13.40;;;10.77;;
13238;SDS011;6686;51.292;4.166;2022-10-20T08:43:19;13.77;;;10.10;;
13238;SDS011;6686;51.292;4.166;2022-10-20T08:46:05;13.27;;;9.83;;
13238;SDS011;6686;51.292;4.166;2022-10-20T08:48:51;14.80;;;10.27;;
13238;SDS011;6686;51.292;4.166;2022-10-20T08:51:37;13.03;;;10.37;;
13238;SDS011;6686;51.292;4.166;2022-10-20T08:54:22;19.73;;;11.10;;
13238;SDS011;6686;51.292;4.166;2022-10-20T08:57:18;14.33;;;9.20;;
13238;SDS011;6686;51.292;4.166;2022-10-20T09:00:17;14.73;;;10.53;;
13238;SDS011;6686;51.292;4.166;2022-10-20T09:03:12;16.00;;;12.07;;
13238;SDS011;6686;51.292;4.166;2022-10-20T09:06:11;14.03;;;11.13;;
13238;SDS011;6686;51.292;4.166;2022-10-20T09:08:33;15.47;;;10.70;;
13238;SDS011;6686;51.292;4.166;2022-10-20T09:11:23;12.80;;;9.80;;
13238;SDS011;6686;51.292;4.166;2022-10-20T09:14:09;16.83;;;10.73;;
13238;SDS011;6686;51.292;4.166;2022-10-20T09:16:57;12.47;;;9.90;;
13238;SDS011;6686;51.292;4.166;2022-10-20T09:19:47;13.53;;;10.43;;
13238;SDS011;6686;51.292;4.166;2022-10-20T09:22:32;14.83;;;10.97;;
13238;SDS011;6686;51.292;4.166;2022-10-20T09:25:22;16.73;;;11.20;;
13238;SDS011;6686;51.292;4.166;2022-10-20T09:28:03;15.87;;;10.53;;
13238;SDS011;6686;51.292;4.166;2022-10-20T09:30:49;14.13;;;11.00;;
13238;SDS011;6686;51.292;4.166;2022-10-20T09:33:36;13.67;;;10.23;;
13238;SDS011;6686;51.292;4.166;2022-10-20T09:36:22;12.23;;;10.67;;
13238;SDS011;6686;51.292;4.166;2022-10-20T09:39:15;12.33;;;10.13;;
13238;SDS011;6686;51.292;4.166;2022-10-20T09:42:13;13.03;;;10.63;;
13238;SDS011;6686;51.292;4.166;2022-10-20T09:44:50;13.50;;;10.30;;
13238;SDS011;6686;51.292;4.166;2022-10-20T09:47:44;17.27;;;11.93;;
13238;SDS011;6686;51.292;4.166;2022-10-20T09:50:31;15.88;;;12.43;;
13238;SDS011;6686;51.292;4.166;2022-10-20T09:53:26;17.40;;;10.67;;
13238;SDS011;6686;51.292;4.166;2022-10-20T09:56:21;14.40;;;12.85;;
13238;SDS011;6686;51.292;4.166;2022-10-20T09:58:59;13.83;;;11.17;;
13238;SDS011;6686;51.292;4.166;2022-10-20T10:01:55;13.53;;;10.83;;
13238;SDS011;6686;51.292;4.166;2022-10-20T10:04:41;19.17;;;11.40;;
13238;SDS011;6686;51.292;4.166;2022-10-20T10:07:29;15.10;;;11.43;;
13238;SDS011;6686;51.292;4.166;2022-10-20T10:13:04;17.80;;;12.83;;
13238;SDS011;6686;51.292;4.166;2022-10-20T10:16:01;17.27;;;12.27;;
13238;SDS011;6686;51.292;4.166;2022-10-20T10:18:58;19.65;;;15.35;;
13238;SDS011;6686;51.292;4.166;2022-10-20T10:21:42;19.33;;;14.30;;
13238;SDS011;6686;51.292;4.166;2022-10-20T10:24:37;17.83;;;13.93;;
13238;SDS011;6686;51.292;4.166;2022-10-20T10:27:32;21.23;;;13.77;;
13238;SDS011;6686;51.292;4.166;2022-10-20T10:33:31;17.70;;;12.83;;
13238;SDS011;6686;51.292;4.166;2022-10-20T10:36:11;17.20;;;11.93;;
13238;SDS011;6686;51.292;4.166;2022-10-20T10:38:52;17.83;;;12.10;;
13238;SDS011;6686;51.292;4.166;2022-10-20T10:45:11;14.57;;;11.20;;
13238;SDS011;6686;51.292;4.166;2022-10-20T10:57:56;13.33;;;10.73;;
13238;SDS011;6686;51.292;4.166;2022-10-20T11:00:51;15.93;;;11.27;;
13238;SDS011;6686;51.292;4.166;2022-10-20T11:03:47;17.70;;;10.57;;
13238;SDS011;6686;51.292;4.166;2022-10-20T11:21:49;13.53;;;10.43;;
13238;SDS011;6686;51.292;4.166;2022-10-20T11:27:28;15.40;;;10.77;;
13238;SDS011;6686;51.292;4.166;2022-10-20T11:33:05;13.83;;;10.73;;
13238;SDS011;6686;51.292;4.166;2022-10-20T11:36:03;15.90;;;11.43;;
13238;SDS011;6686;51.292;4.166;2022-10-20T11:38:51;14.90;;;10.37;;
13238;SDS011;6686;51.292;4.166;2022-10-20T11:41:42;12.67;;;10.40;;
13238;SDS011;6686;51.292;4.166;2022-10-20T11:44:29;14.17;;;10.47;;
13238;SDS011;6686;51.292;4.166;2022-10-20T11:47:15;14.00;;;9.90;;
13238;SDS011;6686;51.292;4.166;2022-10-20T11:50:00;14.97;;;10.40;;
13238;SDS011;6686;51.292;4.166;2022-10-20T11:52:58;11.30;;;9.00;;
13238;SDS011;6686;51.292;4.166;2022-10-20T12:05:03;14.82;;;10.82;;
13238;SDS011;6686;51.292;4.166;2022-10-20T12:10:55;14.00;;;8.73;;
13238;SDS011;6686;51.292;4.166;2022-10-20T12:13:40;13.25;;;10.02;;
13238;SDS011;6686;51.292;4.166;2022-10-20T12:19:38;12.80;;;9.90;;
13238;SDS011;6686;51.292;4.166;2022-10-20T12:31:06;17.70;;;10.53;;
13238;SDS011;6686;51.292;4.166;2022-10-20T12:36:37;11.63;;;6.83;;
13238;SDS011;6686;51.292;4.166;2022-10-20T12:39:23;13.30;;;6.70;;
13238;SDS011;6686;51.292;4.166;2022-10-20T12:42:56;9.57;;;6.07;;
13238;SDS011;6686;51.292;4.166;2022-10-20T12:45:21;11.80;;;6.00;;
13238;SDS011;6686;51.292;4.166;2022-10-20T12:47:55;10.93;;;5.43;;
13238;SDS011;6686;51.292;4.166;2022-10-20T12:50:40;8.87;;;5.17;;
13238;SDS011;6686;51.292;4.166;2022-10-20T12:53:26;8.60;;;5.40;;
13238;SDS011;6686;51.292;4.166;2022-10-20T12:56:11;10.10;;;5.27;;
13238;SDS011;6686;51.292;4.166;2022-10-20T13:10:31;6.00;;;3.67;;
13238;SDS011;6686;51.292;4.166;2022-10-20T13:16:08;3.90;;;3.20;;
13238;SDS011;6686;51.292;4.166;2022-10-20T13:18:51;5.93;;;3.20;;
13238;SDS011;6686;51.292;4.166;2022-10-20T13:21:37;9.27;;;4.20;;
13238;SDS011;6686;51.292;4.166;2022-10-20T13:24:24;4.40;;;3.30;;
13238;SDS011;6686;51.292;4.166;2022-10-20T13:27:14;7.67;;;3.33;;
13238;SDS011;6686;51.292;4.166;2022-10-20T13:30:00;7.03;;;2.83;;
13238;SDS011;6686;51.292;4.166;2022-10-20T13:33:04;5.27;;;2.70;;
13238;SDS011;6686;51.292;4.166;2022-10-20T13:35:59;6.23;;;2.93;;
13238;SDS011;6686;51.292;4.166;2022-10-20T13:38:57;5.77;;;3.10;;
13238;SDS011;6686;51.292;4.166;2022-10-20T13:47:50;5.27;;;3.13;;
13238;SDS011;6686;51.292;4.166;2022-10-20T13:50:39;5.20;;;2.67;;
13238;SDS011;6686;51.292;4.166;2022-10-20T13:53:31;7.27;;;2.67;;
13238;SDS011;6686;51.292;4.166;2022-10-20T13:59:03;4.57;;;2.67;;
13238;SDS011;6686;51.292;4.166;2022-10-20T14:01:51;6.78;;;2.90;;
13238;SDS011;6686;51.292;4.166;2022-10-20T14:04:36;3.23;;;2.40;;
13238;SDS011;6686;51.292;4.166;2022-10-20T14:07:22;5.97;;;2.93;;
13238;SDS011;6686;51.292;4.166;2022-10-20T14:13:10;6.57;;;2.57;;
13238;SDS011;6686;51.292;4.166;2022-10-20T14:15:58;3.80;;;2.60;;
13238;SDS011;6686;51.292;4.166;2022-10-20T14:18:40;4.60;;;3.00;;
13238;SDS011;6686;51.292;4.166;2022-10-20T14:21:26;4.63;;;3.10;;
13238;SDS011;6686;51.292;4.166;2022-10-20T14:24:25;5.97;;;2.80;;
13238;SDS011;6686;51.292;4.166;2022-10-20T14:27:12;5.70;;;2.30;;
13238;SDS011;6686;51.292;4.166;2022-10-20T14:29:53;5.43;;;2.83;;
13238;SDS011;6686;51.292;4.166;2022-10-20T14:32:39;4.60;;;2.60;;
13238;SDS011;6686;51.292;4.166;2022-10-20T14:35:29;5.10;;;2.77;;
13238;SDS011;6686;51.292;4.166;2022-10-20T14:38:15;3.63;;;2.67;;
13238;SDS011;6686;51.292;4.166;2022-10-20T14:41:00;3.43;;;2.57;;
13238;SDS011;6686;51.292;4.166;2022-10-20T14:43:46;3.80;;;2.33;;
13238;SDS011;6686;51.292;4.166;2022-10-20T14:49:28;3.57;;;2.50;;
13238;SDS011;6686;51.292;4.166;2022-10-20T14:55:01;6.23;;;2.70;;
13238;SDS011;6686;51.292;4.166;2022-10-20T14:57:47;6.63;;;2.70;;
13238;SDS011;6686;51.292;4.166;2022-10-20T15:00:33;5.03;;;2.50;;
13238;SDS011;6686;51.292;4.166;2022-10-20T15:03:18;7.97;;;3.00;;
13238;SDS011;6686;51.292;4.166;2022-10-20T15:06:07;7.67;;;2.70;;
13238;SDS011;6686;51.292;4.166;2022-10-20T15:08:51;5.53;;;2.80;;
13238;SDS011;6686;51.292;4.166;2022-10-20T15:11:36;4.73;;;2.77;;
13238;SDS011;6686;51.292;4.166;2022-10-20T15:14:22;3.77;;;2.40;;
13238;SDS011;6686;51.292;4.166;2022-10-20T15:23:15;4.80;;;2.60;;
13238;SDS011;6686;51.292;4.166;2022-10-20T15:26:04;5.40;;;2.73;;
13238;SDS011;6686;51.292;4.166;2022-10-20T15:28:49;3.40;;;2.47;;
13238;SDS011;6686;51.292;4.166;2022-10-20T15:31:35;4.93;;;2.80;;
13238;SDS011;6686;51.292;4.166;2022-10-20T15:34:20;4.27;;;2.43;;
13238;SDS011;6686;51.292;4.166;2022-10-20T15:37:07;3.93;;;2.63;;
13238;SDS011;6686;51.292;4.166;2022-10-20T15:39:52;3.85;;;2.67;;
13238;SDS011;6686;51.292;4.166;2022-10-20T15:42:38;4.87;;;3.20;;
13238;SDS011;6686;51.292;4.166;2022-10-20T15:45:27;10.90;;;5.03;;
13238;SDS011;6686;51.292;4.166;2022-10-20T15:48:13;6.70;;;3.63;;
13238;SDS011;6686;51.292;4.166;2022-10-20T15:51:01;6.00;;;3.10;;
13238;SDS011;6686;51.292;4.166;2022-10-20T15:53:47;4.60;;;3.03;;
13238;SDS011;6686;51.292;4.166;2022-10-20T15:56:33;5.90;;;3.70;;
13238;SDS011;6686;51.292;4.166;2022-10-20T15:59:19;8.00;;;4.30;;
13238;SDS011;6686;51.292;4.166;2022-10-20T16:02:08;4.47;;;3.60;;
13238;SDS011;6686;51.292;4.166;2022-10-20T16:04:51;6.37;;;3.90;;
13238;SDS011;6686;51.292;4.166;2022-10-20T16:07:37;6.10;;;3.63;;
13238;SDS011;6686;51.292;4.166;2022-10-20T16:10:23;8.95;;;5.00;;
13238;SDS011;6686;51.292;4.166;2022-10-20T16:13:09;7.87;;;3.53;;
13238;SDS011;6686;51.292;4.166;2022-10-20T16:15:54;4.47;;;3.13;;
13238;SDS011;6686;51.292;4.166;2022-10-20T16:18:41;4.57;;;3.33;;
13238;SDS011;6686;51.292;4.166;2022-10-20T16:21:26;5.33;;;3.60;;
13238;SDS011;6686;51.292;4.166;2022-10-20T16:24:12;6.47;;;4.07;;
13238;SDS011;6686;51.292;4.166;2022-10-20T16:26:58;7.53;;;3.53;;
13238;SDS011;6686;51.292;4.166;2022-10-20T16:29:44;6.73;;;4.00;;
13238;SDS011;6686;51.292;4.166;2022-10-20T16:32:30;5.20;;;3.73;;
13238;SDS011;6686;51.292;4.166;2022-10-20T16:35:16;6.20;;;3.43;;
13238;SDS011;6686;51.292;4.166;2022-10-20T16:38:01;5.07;;;3.47;;
13238;SDS011;6686;51.292;4.166;2022-10-20T16:40:57;6.87;;;3.30;;
13238;SDS011;6686;51.292;4.166;2022-10-20T16:43:43;4.13;;;3.70;;
13238;SDS011;6686;51.292;4.166;2022-10-20T16:46:28;7.57;;;3.83;;
13238;SDS011;6686;51.292;4.166;2022-10-20T16:49:14;8.93;;;7.50;;
13238;SDS011;6686;51.292;4.166;2022-10-20T16:52:00;7.47;;;5.23;;
13238;SDS011;6686;51.292;4.166;2022-10-20T16:54:46;6.47;;;3.90;;
13238;SDS011;6686;51.292;4.166;2022-10-20T16:57:34;9.53;;;6.13;;
13238;SDS011;6686;51.292;4.166;2022-10-20T17:00:18;8.43;;;6.40;;
13238;SDS011;6686;51.292;4.166;2022-10-20T17:03:04;5.37;;;4.10;;
13238;SDS011;6686;51.292;4.166;2022-10-20T17:05:53;4.20;;;3.70;;
13238;SDS011;6686;51.292;4.166;2022-10-20T17:08:38;5.28;;;3.53;;
13238;SDS011;6686;51.292;4.166;2022-10-20T17:11:25;6.13;;;3.73;;
13238;SDS011;6686;51.292;4.166;2022-10-20T17:14:10;3.60;;;3.10;;
13238;SDS011;6686;51.292;4.166;2022-10-20T17:16:56;5.75;;;4.07;;
13238;SDS011;6686;51.292;4.166;2022-10-20T17:19:41;8.13;;;6.73;;
13238;SDS011;6686;51.292;4.166;2022-10-20T17:22:28;7.07;;;4.47;;
13238;SDS011;6686;51.292;4.166;2022-10-20T17:25:13;6.57;;;4.20;;
13238;SDS011;6686;51.292;4.166;2022-10-20T17:27:59;9.57;;;3.63;;
13238;SDS011;6686;51.292;4.166;2022-10-20T17:30:46;12.17;;;6.73;;
13238;SDS011;6686;51.292;4.166;2022-10-20T17:33:32;19.57;;;9.73;;
13238;SDS011;6686;51.292;4.166;2022-10-20T17:36:17;24.80;;;18.53;;
13238;SDS011;6686;51.292;4.166;2022-10-20T17:39:04;7.63;;;4.50;;
13238;SDS011;6686;51.292;4.166;2022-10-20T17:41:49;7.67;;;4.40;;
13238;SDS011;6686;51.292;4.166;2022-10-20T17:44:35;8.47;;;5.00;;
13238;SDS011;6686;51.292;4.166;2022-10-20T17:47:37;5.80;;;4.33;;
13238;SDS011;6686;51.292;4.166;2022-10-20T17:50:17;7.07;;;4.10;;
13238;SDS011;6686;51.292;4.166;2022-10-20T17:53:03;6.83;;;4.40;;
13238;SDS011;6686;51.292;4.166;2022-10-20T17:55:49;8.33;;;4.90;;
13238;SDS011;6686;51.292;4.166;2022-10-20T17:58:34;10.17;;;5.77;;
13238;SDS011;6686;51.292;4.166;2022-10-20T18:01:21;6.83;;;4.03;;
13238;SDS011;6686;51.292;4.166;2022-10-20T18:04:13;8.67;;;4.50;;
13238;SDS011;6686;51.292;4.166;2022-10-20T18:06:55;10.37;;;4.57;;
13238;SDS011;6686;51.292;4.166;2022-10-20T18:09:41;8.38;;;4.72;;
13238;SDS011;6686;51.292;4.166;2022-10-20T18:12:27;7.13;;;4.93;;
13238;SDS011;6686;51.292;4.166;2022-10-20T18:15:12;6.03;;;4.40;;
13238;SDS011;6686;51.292;4.166;2022-10-20T18:18:02;5.53;;;4.57;;
13238;SDS011;6686;51.292;4.166;2022-10-20T18:20:57;11.33;;;4.57;;
13238;SDS011;6686;51.292;4.166;2022-10-20T18:23:43;10.40;;;5.53;;
13238;SDS011;6686;51.292;4.166;2022-10-20T18:26:32;11.80;;;5.50;;
13238;SDS011;6686;51.292;4.166;2022-10-20T18:29:18;10.63;;;8.67;;
13238;SDS011;6686;51.292;4.166;2022-10-20T18:32:04;9.50;;;5.23;;
13238;SDS011;6686;51.292;4.166;2022-10-20T18:34:49;6.23;;;5.40;;
13238;SDS011;6686;51.292;4.166;2022-10-20T18:37:35;8.40;;;4.77;;
13238;SDS011;6686;51.292;4.166;2022-10-20T18:40:24;6.60;;;5.07;;
13238;SDS011;6686;51.292;4.166;2022-10-20T18:43:10;9.40;;;5.43;;
13238;SDS011;6686;51.292;4.166;2022-10-20T18:45:56;7.53;;;5.53;;
13238;SDS011;6686;51.292;4.166;2022-10-20T18:48:42;9.20;;;5.50;;